createdAt,value
2023-03-19T00:00:27.521Z,15.70
2023-03-19T00:02:54.501Z,14.20
2023-03-19T00:05:21.621Z,15.00
2023-03-19T00:07:48.459Z,15.82
2023-03-19T00:10:15.246Z,14.23
2023-03-19T00:12:42.013Z,13.38
2023-03-19T00:15:14.145Z,15.05
2023-03-19T00:17:43.201Z,13.95
2023-03-19T00:20:12.135Z,13.02
2023-03-19T00:22:40.390Z,12.80
2023-03-19T00:25:08.536Z,10.40
2023-03-19T00:27:37.450Z,12.48
2023-03-19T00:30:06.767Z,12.75
2023-03-19T00:32:34.304Z,13.02
2023-03-19T00:35:01.405Z,12.23
2023-03-19T00:37:28.652Z,11.05
2023-03-19T00:39:56.244Z,11.35
2023-03-19T00:42:23.204Z,11.25
2023-03-19T00:44:50.355Z,11.30
2023-03-19T00:47:17.599Z,10.75
2023-03-19T00:49:44.669Z,11.45
2023-03-19T00:52:11.641Z,10.63
2023-03-19T00:54:40.164Z,11.45
2023-03-19T00:57:08.471Z,11.80
2023-03-19T00:59:35.405Z,11.23
2023-03-19T01:02:03.703Z,14.10
2023-03-19T01:04:30.482Z,12.73
2023-03-19T01:09:26.680Z,13.43
2023-03-19T01:11:53.621Z,14.18
2023-03-19T01:14:21.197Z,13.15
2023-03-19T01:16:48.337Z,13.48
2023-03-19T01:19:16.431Z,13.13
2023-03-19T01:21:46.508Z,13.35
2023-03-19T01:24:17.468Z,13.40
2023-03-19T01:26:46.554Z,12.73
2023-03-19T01:29:24.419Z,11.77
2023-03-19T01:31:53.720Z,12.75
2023-03-19T01:34:35.666Z,13.00
2023-03-19T01:37:09.442Z,13.52
2023-03-19T01:39:37.250Z,12.50
2023-03-19T01:42:08.399Z,12.05
2023-03-19T01:45:03.552Z,12.63
2023-03-19T01:47:59.860Z,12.68
2023-03-19T01:50:45.782Z,13.38
2023-03-19T01:53:24.348Z,13.75
2023-03-19T01:56:04.455Z,12.55
2023-03-19T01:58:42.214Z,13.48
2023-03-19T02:01:34.253Z,12.45
2023-03-19T02:04:01.431Z,13.18
2023-03-19T02:06:32.980Z,13.40
2023-03-19T02:08:59.941Z,12.88
2023-03-19T02:11:26.898Z,13.52
2023-03-19T02:13:53.838Z,13.85
2023-03-19T02:16:20.893Z,12.90
2023-03-19T02:18:48.573Z,13.65
2023-03-19T02:21:17.573Z,12.95
2023-03-19T02:24:01.555Z,12.52
2023-03-19T02:26:45.476Z,13.00
2023-03-19T02:29:13.358Z,14.38
2023-03-19T02:31:40.638Z,11.95
2023-03-19T02:34:10.666Z,12.75
2023-03-19T02:36:44.434Z,12.63
2023-03-19T02:39:22.869Z,11.82
2023-03-19T02:41:53.353Z,12.07
2023-03-19T02:44:20.953Z,12.45
2023-03-19T02:46:50.494Z,11.82
2023-03-19T02:49:17.288Z,11.65
2023-03-19T02:51:43.832Z,10.07
2023-03-19T02:54:10.711Z,11.32
2023-03-19T02:56:37.490Z,10.18
2023-03-19T02:59:05.292Z,10.70
2023-03-19T03:01:31.998Z,10.10
2023-03-19T03:03:58.737Z,9.50
2023-03-19T03:06:25.611Z,11.07
2023-03-19T03:08:52.371Z,9.80
2023-03-19T03:11:19.031Z,10.07
2023-03-19T03:13:45.932Z,9.60
2023-03-19T03:16:12.705Z,9.65
2023-03-19T03:23:11.513Z,9.88
2023-03-19T03:25:38.629Z,9.35
2023-03-19T03:28:05.577Z,10.05
2023-03-19T03:30:33.062Z,9.57
2023-03-19T03:33:00.552Z,8.15
2023-03-19T03:35:27.626Z,9.23
2023-03-19T03:37:54.649Z,9.82
2023-03-19T03:40:24.150Z,9.82
2023-03-19T03:42:51.353Z,10.45
2023-03-19T03:45:18.318Z,11.00
2023-03-19T03:47:45.583Z,8.95
2023-03-19T03:50:12.696Z,9.30
2023-03-19T03:52:41.059Z,9.50
2023-03-19T03:55:08.951Z,9.05
2023-03-19T03:57:36.570Z,10.02
2023-03-19T04:00:05.272Z,10.13
2023-03-19T04:02:47.190Z,9.55
2023-03-19T04:05:16.451Z,9.90
2023-03-19T04:07:44.083Z,10.07
2023-03-19T04:10:15.479Z,10.25
2023-03-19T04:12:42.627Z,9.80
2023-03-19T04:15:11.320Z,10.52
2023-03-19T04:17:40.475Z,11.55
2023-03-19T04:20:08.448Z,12.32
2023-03-19T04:22:35.550Z,11.45
2023-03-19T04:25:02.876Z,11.18
2023-03-19T04:27:29.602Z,12.18
2023-03-19T04:29:56.372Z,12.30
2023-03-19T04:32:25.097Z,13.88
2023-03-19T04:34:52.828Z,14.15
2023-03-19T04:37:19.554Z,14.15
2023-03-19T04:39:49.715Z,13.77
2023-03-19T04:42:17.049Z,14.20
2023-03-19T04:45:00.731Z,13.35
2023-03-19T04:47:28.255Z,14.52
2023-03-19T04:49:58.286Z,13.63
2023-03-19T04:52:26.112Z,13.30
2023-03-19T04:54:54.665Z,14.10
2023-03-19T04:57:21.689Z,14.73
2023-03-19T04:59:50.076Z,14.73
2023-03-19T05:02:17.382Z,15.13
2023-03-19T05:04:44.855Z,13.77
2023-03-19T05:07:13.910Z,13.13
2023-03-19T05:09:43.997Z,15.02
2023-03-19T05:12:12.357Z,14.57
2023-03-19T05:14:44.415Z,13.38
2023-03-19T05:17:22.799Z,12.65
2023-03-19T05:20:05.107Z,13.88
2023-03-19T05:22:34.211Z,13.68
2023-03-19T05:25:01.070Z,12.70
2023-03-19T05:27:29.295Z,12.38
2023-03-19T05:30:02.016Z,10.98
2023-03-19T05:32:41.020Z,8.68
2023-03-19T05:35:14.431Z,8.95
2023-03-19T05:37:42.129Z,8.95
2023-03-19T05:40:10.821Z,9.02
2023-03-19T05:42:38.048Z,9.48
2023-03-19T05:45:07.582Z,8.25
2023-03-19T05:47:44.883Z,8.60
2023-03-19T05:50:12.343Z,9.07
2023-03-19T05:52:46.224Z,8.63
2023-03-19T05:55:13.623Z,7.68
2023-03-19T05:57:55.853Z,9.15
2023-03-19T06:00:25.635Z,8.63
2023-03-19T06:02:53.147Z,9.38
2023-03-19T06:05:25.911Z,8.90
2023-03-19T06:07:56.345Z,9.02
2023-03-19T06:10:43.351Z,9.63
2023-03-19T06:13:11.458Z,11.05
2023-03-19T06:15:56.801Z,10.38
2023-03-19T06:18:32.077Z,9.85
2023-03-19T06:21:00.042Z,8.18
2023-03-19T06:23:26.792Z,10.10
2023-03-19T06:25:54.607Z,8.98
2023-03-19T06:28:23.966Z,11.15
2023-03-19T06:30:50.936Z,11.13
2023-03-19T06:33:46.925Z,11.25
2023-03-19T06:36:13.818Z,10.30
2023-03-19T06:38:40.549Z,10.40
2023-03-19T06:41:07.271Z,10.73
2023-03-19T06:43:37.029Z,11.45
2023-03-19T06:46:04.751Z,11.57
2023-03-19T06:48:31.724Z,11.93
2023-03-19T06:50:58.435Z,9.77
2023-03-19T06:53:25.396Z,10.95
2023-03-19T06:55:52.211Z,11.18
2023-03-19T06:58:18.853Z,11.45
2023-03-19T07:00:45.629Z,12.55
2023-03-19T07:03:12.404Z,12.73
2023-03-19T07:05:39.141Z,12.30
2023-03-19T07:08:11.823Z,14.27
2023-03-19T07:10:39.579Z,15.15
2023-03-19T07:13:06.510Z,15.65
2023-03-19T07:15:34.138Z,17.20
2023-03-19T07:18:00.841Z,15.75
2023-03-19T07:20:27.872Z,16.20
2023-03-19T07:22:54.832Z,16.25
2023-03-19T07:25:21.830Z,16.15
2023-03-19T07:27:49.174Z,15.65
2023-03-19T07:30:16.311Z,16.30
2023-03-19T07:32:43.951Z,15.82
2023-03-19T07:35:11.564Z,15.55
2023-03-19T07:37:39.547Z,14.98
2023-03-19T07:40:07.510Z,15.05
2023-03-19T07:42:36.453Z,16.23
2023-03-19T07:45:04.388Z,15.20
2023-03-19T07:47:31.120Z,15.70
2023-03-19T07:49:58.204Z,14.95
2023-03-19T07:52:26.218Z,16.45
2023-03-19T07:54:53.642Z,15.57
2023-03-19T07:57:21.040Z,16.73
2023-03-19T07:59:48.073Z,16.90
2023-03-19T08:02:15.158Z,15.60
2023-03-19T08:04:42.278Z,15.35
2023-03-19T08:07:11.139Z,16.10
2023-03-19T08:09:39.500Z,15.02
2023-03-19T08:12:07.459Z,15.55
2023-03-19T08:14:34.496Z,16.17
2023-03-19T08:17:01.369Z,16.30
2023-03-19T08:19:28.221Z,15.43
2023-03-19T08:21:54.792Z,15.73
2023-03-19T08:24:21.711Z,15.65
2023-03-19T08:26:48.339Z,15.98
2023-03-19T08:29:15.536Z,15.75
2023-03-19T08:31:43.053Z,14.90
2023-03-19T08:34:10.359Z,14.38
2023-03-19T08:36:37.571Z,15.65
2023-03-19T08:39:04.622Z,15.27
2023-03-19T08:41:31.558Z,15.55
2023-03-19T08:43:58.237Z,17.63
2023-03-19T08:46:25.416Z,17.08
2023-03-19T08:48:53.877Z,16.13
2023-03-19T08:51:25.257Z,16.60
2023-03-19T08:53:55.389Z,16.65
2023-03-19T08:56:26.426Z,16.08
2023-03-19T08:58:57.352Z,17.05
2023-03-19T09:01:29.079Z,16.55
2023-03-19T09:04:02.016Z,15.63
2023-03-19T09:06:34.636Z,16.65
2023-03-19T09:09:02.566Z,16.70
2023-03-19T09:11:29.947Z,15.82
2023-03-19T09:13:56.807Z,16.77
2023-03-19T09:16:23.582Z,16.08
2023-03-19T09:18:50.302Z,16.45
2023-03-19T09:21:16.992Z,18.10
2023-03-19T09:23:44.030Z,17.40
2023-03-19T09:26:10.773Z,16.38
2023-03-19T09:28:38.110Z,17.92
2023-03-19T09:31:07.425Z,17.10
2023-03-19T09:33:34.155Z,18.42
2023-03-19T09:36:01.498Z,17.40
2023-03-19T09:38:29.574Z,17.05
2023-03-19T09:41:13.821Z,17.20
2023-03-19T09:44:12.915Z,16.13
2023-03-19T09:47:08.944Z,17.15
2023-03-19T09:49:43.681Z,16.75
2023-03-19T09:52:20.413Z,15.60
2023-03-19T09:54:52.333Z,17.10
2023-03-19T09:57:19.643Z,16.25
2023-03-19T09:59:48.158Z,17.55
2023-03-19T10:02:36.714Z,16.95
2023-03-19T10:05:11.332Z,17.67
2023-03-19T10:07:56.205Z,16.95
2023-03-19T10:10:53.946Z,17.20
2023-03-19T10:13:52.833Z,15.95
2023-03-19T10:16:24.271Z,17.00
2023-03-19T10:18:54.617Z,15.98
2023-03-19T10:21:44.952Z,18.38
2023-03-19T10:24:44.750Z,17.63
2023-03-19T10:27:17.417Z,17.25
2023-03-19T10:29:44.682Z,18.35
2023-03-19T10:32:19.635Z,16.90
2023-03-19T10:34:49.147Z,15.40
2023-03-19T10:37:21.274Z,17.48
2023-03-19T10:39:50.995Z,16.50
2023-03-19T10:42:43.994Z,18.23
2023-03-19T10:45:31.273Z,16.08
2023-03-19T10:47:59.747Z,15.20
2023-03-19T10:50:42.982Z,15.45
2023-03-19T10:53:15.661Z,15.77
2023-03-19T10:55:54.171Z,15.50
2023-03-19T10:58:25.690Z,16.02
2023-03-19T11:01:04.959Z,16.05
2023-03-19T11:03:38.774Z,15.93
2023-03-19T11:06:34.506Z,14.30
2023-03-19T11:09:13.499Z,14.88
2023-03-19T11:11:50.865Z,15.75
2023-03-19T11:14:21.469Z,15.60
2023-03-19T11:17:24.059Z,15.70
2023-03-19T11:19:54.353Z,14.95
2023-03-19T11:22:33.825Z,14.70
2023-03-19T11:25:03.828Z,14.02
2023-03-19T11:27:34.958Z,14.40
2023-03-19T11:30:04.908Z,14.48
2023-03-19T11:32:38.640Z,15.10
2023-03-19T11:35:16.738Z,14.73
2023-03-19T11:37:56.235Z,13.95
2023-03-19T11:40:58.231Z,14.52
2023-03-19T11:43:39.903Z,14.90
2023-03-19T11:46:14.054Z,14.40
2023-03-19T11:48:43.783Z,14.27
2023-03-19T11:51:25.280Z,14.68
2023-03-19T11:54:05.491Z,14.32
2023-03-19T11:56:48.230Z,14.18
2023-03-19T11:59:28.576Z,14.10
2023-03-19T12:02:13.965Z,13.88
2023-03-19T12:04:59.422Z,13.63
2023-03-19T12:07:54.842Z,13.48
2023-03-19T12:10:46.832Z,13.00
2023-03-19T12:13:32.276Z,12.25
2023-03-19T12:16:11.179Z,12.38
2023-03-19T12:19:01.132Z,12.30
2023-03-19T12:21:37.991Z,12.52
2023-03-19T12:24:18.438Z,12.45
2023-03-19T12:26:45.145Z,10.95
2023-03-19T12:29:39.514Z,12.20
2023-03-19T12:32:34.146Z,11.48
2023-03-19T12:35:35.419Z,11.70
2023-03-19T12:38:21.092Z,11.00
2023-03-19T12:40:53.394Z,10.10
2023-03-19T12:43:55.606Z,10.52
2023-03-19T12:46:48.480Z,9.05
2023-03-19T12:49:19.345Z,9.10
2023-03-19T12:51:52.485Z,8.48
2023-03-19T12:54:28.492Z,7.47
2023-03-19T12:57:12.961Z,8.18
2023-03-19T12:59:58.007Z,7.38
2023-03-19T13:02:50.350Z,7.40
2023-03-19T13:05:26.183Z,8.18
2023-03-19T13:07:59.478Z,7.57
2023-03-19T13:10:27.856Z,7.68
2023-03-19T13:12:56.118Z,7.53
2023-03-19T13:15:31.003Z,6.53
2023-03-19T13:18:28.742Z,7.10
2023-03-19T13:21:14.177Z,6.45
2023-03-19T13:23:45.756Z,7.38
2023-03-19T13:26:13.881Z,7.55
2023-03-19T13:29:02.648Z,7.20
2023-03-19T13:31:35.571Z,7.85
2023-03-19T13:34:05.897Z,6.35
2023-03-19T13:36:39.466Z,6.50
2023-03-19T13:39:18.967Z,7.18
2023-03-19T13:41:57.924Z,6.78
2023-03-19T13:44:32.529Z,7.57
2023-03-19T13:47:12.784Z,7.17
2023-03-19T13:50:02.399Z,6.88
2023-03-19T13:52:29.245Z,8.38
2023-03-19T13:54:59.018Z,7.55
2023-03-19T13:57:36.033Z,8.25
2023-03-19T14:00:55.380Z,8.50
2023-03-19T14:03:27.589Z,7.43
2023-03-19T14:05:56.604Z,7.20
2023-03-19T14:08:34.206Z,8.85
2023-03-19T14:11:03.164Z,7.68
2023-03-19T14:13:43.282Z,8.18
2023-03-19T14:16:21.123Z,8.00
2023-03-19T14:18:50.441Z,7.22
2023-03-19T14:21:37.986Z,7.38
2023-03-19T14:24:56.624Z,7.72
2023-03-19T14:27:25.775Z,7.20
2023-03-19T14:29:55.172Z,7.40
2023-03-19T14:32:28.243Z,7.50
2023-03-19T14:34:55.985Z,7.18
2023-03-19T14:37:28.378Z,7.00
2023-03-19T14:40:18.808Z,7.78
2023-03-19T14:43:08.192Z,7.75
2023-03-19T14:45:44.082Z,8.43
2023-03-19T14:48:13.739Z,9.15
2023-03-19T14:50:49.281Z,9.35
2023-03-19T14:53:31.922Z,9.80
2023-03-19T14:56:10.431Z,10.27
2023-03-19T14:58:37.377Z,10.45
2023-03-19T15:01:07.774Z,10.00
2023-03-19T15:03:37.861Z,9.30
2023-03-19T15:06:07.867Z,10.70
2023-03-19T15:08:37.879Z,11.00
2023-03-19T15:11:13.291Z,10.65
2023-03-19T15:16:43.148Z,9.95
2023-03-19T15:19:11.731Z,10.07
2023-03-19T15:21:40.526Z,10.80
2023-03-19T15:24:14.799Z,9.75
2023-03-19T15:26:41.934Z,9.48
2023-03-19T15:29:12.267Z,11.13
2023-03-19T15:31:54.973Z,10.50
2023-03-19T15:34:29.730Z,10.43
2023-03-19T15:37:15.583Z,10.55
2023-03-19T15:39:49.485Z,10.00
2023-03-19T15:42:17.299Z,9.48
2023-03-19T15:44:49.642Z,11.10
2023-03-19T15:47:29.743Z,10.32
2023-03-19T15:50:07.148Z,10.70
2023-03-19T15:52:37.897Z,10.98
2023-03-19T15:55:06.667Z,10.18
2023-03-19T15:57:36.193Z,10.40
2023-03-19T16:00:04.690Z,10.30
2023-03-19T16:02:43.752Z,10.38
2023-03-19T16:05:31.638Z,11.43
2023-03-19T16:08:10.492Z,10.85
2023-03-19T16:10:42.506Z,12.23
2023-03-19T16:13:32.216Z,11.73
2023-03-19T16:16:19.503Z,11.57
2023-03-19T16:18:55.599Z,11.98
2023-03-19T16:21:39.178Z,12.05
2023-03-19T16:24:08.675Z,12.25
2023-03-19T16:26:47.779Z,11.15
2023-03-19T16:29:19.649Z,12.20
2023-03-19T16:31:53.709Z,12.25
2023-03-19T16:34:34.931Z,11.55
2023-03-19T16:37:03.201Z,11.02
2023-03-19T16:39:34.251Z,10.80
2023-03-19T16:42:13.181Z,10.55
2023-03-19T16:44:41.699Z,9.48
2023-03-19T16:47:11.303Z,12.48
2023-03-19T16:49:38.200Z,11.43
2023-03-19T16:52:06.163Z,12.75
2023-03-19T16:54:32.921Z,12.48
2023-03-19T16:57:00.298Z,12.48
2023-03-19T16:59:29.900Z,13.38
2023-03-19T17:01:57.138Z,11.70
2023-03-19T17:04:24.172Z,11.13
2023-03-19T17:06:50.981Z,12.20
2023-03-19T17:09:17.788Z,14.73
2023-03-19T17:11:44.958Z,12.57
2023-03-19T17:14:21.132Z,12.05
2023-03-19T17:16:50.846Z,11.65
2023-03-19T17:19:23.308Z,10.65
2023-03-19T17:21:53.649Z,12.52
2023-03-19T17:24:28.160Z,11.93
2023-03-19T17:26:57.636Z,12.80
2023-03-19T17:29:25.539Z,11.82
2023-03-19T17:31:54.863Z,11.25
2023-03-19T17:34:27.735Z,11.02
2023-03-19T17:36:56.799Z,9.75
2023-03-19T17:39:24.948Z,9.68
2023-03-19T17:41:52.276Z,9.35
2023-03-19T17:44:19.111Z,8.80
2023-03-19T17:46:49.839Z,8.10
2023-03-19T17:49:34.816Z,8.15
2023-03-19T17:52:01.650Z,7.85
2023-03-19T17:54:28.547Z,7.13
2023-03-19T17:56:55.973Z,7.05
2023-03-19T17:59:23.298Z,7.82
2023-03-19T18:01:50.698Z,8.25
2023-03-19T18:04:19.940Z,8.63
2023-03-19T18:06:50.769Z,7.60
2023-03-19T18:09:24.097Z,6.90
2023-03-19T18:11:50.937Z,7.20
2023-03-19T18:14:17.756Z,7.40
2023-03-19T18:16:45.442Z,8.30
2023-03-19T18:19:38.571Z,6.65
2023-03-19T18:22:14.292Z,6.50
2023-03-19T18:24:42.547Z,6.05
2023-03-19T18:27:09.296Z,6.18
2023-03-19T18:29:36.185Z,6.78
2023-03-19T18:32:07.215Z,7.90
2023-03-19T18:34:34.337Z,7.07
2023-03-19T18:37:01.039Z,7.35
2023-03-19T18:39:28.071Z,7.25
2023-03-19T18:41:54.779Z,6.63
2023-03-19T18:44:21.620Z,5.88
2023-03-19T18:46:48.288Z,6.63
2023-03-19T18:49:26.742Z,6.28
2023-03-19T18:52:02.675Z,6.60
2023-03-19T18:54:31.952Z,6.88
2023-03-19T18:57:01.195Z,7.15
2023-03-19T18:59:32.836Z,8.82
2023-03-19T19:02:32.029Z,8.77
2023-03-19T19:04:59.014Z,9.10
2023-03-19T19:07:26.169Z,10.10
2023-03-19T19:09:52.939Z,11.10
2023-03-19T19:12:20.436Z,9.88
2023-03-19T19:14:48.165Z,10.48
2023-03-19T19:17:21.249Z,11.05
2023-03-19T19:19:47.961Z,10.50
2023-03-19T19:22:16.986Z,10.60
2023-03-19T19:24:44.826Z,10.20
2023-03-19T19:27:20.592Z,9.48
2023-03-19T19:29:48.369Z,11.27
2023-03-19T19:32:28.631Z,10.48
2023-03-19T19:34:55.634Z,10.13
2023-03-19T19:37:23.617Z,11.77
2023-03-19T19:39:51.403Z,11.50
2023-03-19T19:42:21.163Z,11.23
2023-03-19T19:44:52.738Z,11.57
2023-03-19T19:47:19.558Z,12.23
2023-03-19T19:49:46.271Z,12.00
2023-03-19T19:52:15.716Z,12.88
2023-03-19T19:54:42.917Z,12.68
2023-03-19T19:57:27.058Z,13.35
2023-03-19T19:59:55.628Z,12.57
2023-03-19T20:02:29.776Z,13.80
2023-03-19T20:04:57.875Z,12.43
2023-03-19T20:07:24.439Z,13.10
2023-03-19T20:09:51.547Z,13.60
2023-03-19T20:12:21.485Z,16.05
2023-03-19T20:14:49.007Z,15.02
2023-03-19T20:17:17.364Z,13.73
2023-03-19T20:19:44.584Z,14.35
2023-03-19T20:22:11.257Z,15.02
2023-03-19T20:24:38.340Z,13.32
2023-03-19T20:27:30.447Z,14.15
2023-03-19T20:29:57.425Z,13.95
2023-03-19T20:32:33.374Z,14.80
2023-03-19T20:35:01.125Z,17.05
2023-03-19T20:37:28.798Z,16.45
2023-03-19T20:39:56.835Z,15.82
2023-03-19T20:42:24.521Z,15.80
2023-03-19T20:44:56.924Z,15.13
2023-03-19T20:47:25.793Z,15.45
2023-03-19T20:49:53.436Z,15.65
2023-03-19T20:52:21.532Z,15.07
2023-03-19T20:54:48.973Z,14.45
2023-03-19T20:57:19.748Z,14.85
2023-03-19T20:59:47.485Z,14.65
2023-03-19T21:02:15.467Z,14.15
2023-03-19T21:04:42.512Z,15.43
2023-03-19T21:07:27.391Z,13.35
2023-03-19T21:09:55.294Z,12.20
2023-03-19T21:12:33.180Z,12.25
2023-03-19T21:15:00.884Z,11.80
2023-03-19T21:17:28.730Z,12.70
2023-03-19T21:19:55.947Z,13.95
2023-03-19T21:22:26.186Z,14.63
2023-03-19T21:25:06.218Z,11.75
2023-03-19T21:27:35.364Z,13.43
2023-03-19T21:30:05.591Z,12.30
2023-03-19T21:32:32.604Z,12.35
2023-03-19T21:34:59.360Z,10.55
2023-03-19T21:37:26.068Z,10.90
2023-03-19T21:39:53.180Z,10.15
2023-03-19T21:42:23.310Z,10.60
2023-03-19T21:44:56.890Z,9.02
2023-03-19T21:47:25.563Z,9.55
2023-03-19T21:49:52.201Z,9.57
2023-03-19T21:52:23.577Z,10.60
2023-03-19T21:54:50.715Z,10.60
2023-03-19T21:57:17.425Z,10.35
2023-03-19T21:59:45.239Z,10.95
2023-03-19T22:02:26.929Z,10.93
2023-03-19T22:04:53.671Z,10.60
2023-03-19T22:07:20.622Z,11.27
2023-03-19T22:09:47.395Z,12.20
2023-03-19T22:12:27.566Z,11.68
2023-03-19T22:14:54.751Z,12.00
2023-03-19T22:17:25.544Z,12.65
2023-03-19T22:19:52.251Z,13.35
2023-03-19T22:22:19.027Z,13.00
2023-03-19T22:24:46.058Z,12.43
2023-03-19T22:27:21.621Z,14.63
2023-03-19T22:32:17.758Z,13.02
2023-03-19T22:34:45.476Z,12.23
2023-03-19T22:37:32.422Z,13.15
2023-03-19T22:39:59.397Z,13.32
2023-03-19T22:42:26.838Z,13.38
2023-03-19T22:44:54.700Z,14.18
2023-03-19T22:47:24.541Z,13.32
2023-03-19T22:49:51.727Z,14.27
2023-03-19T22:52:18.389Z,14.18
2023-03-19T22:54:45.267Z,12.90
2023-03-19T22:57:14.912Z,13.65
2023-03-19T22:59:42.952Z,12.65
2023-03-19T23:02:14.043Z,13.57
2023-03-19T23:04:41.462Z,12.77
2023-03-19T23:07:12.719Z,12.70
2023-03-19T23:09:39.883Z,13.27
2023-03-19T23:14:34.416Z,12.57
2023-03-19T23:17:04.352Z,11.18
2023-03-19T23:19:34.123Z,10.32
2023-03-19T23:22:03.238Z,9.88
2023-03-19T23:24:30.772Z,10.13
2023-03-19T23:26:58.989Z,9.85
2023-03-19T23:29:32.413Z,10.00
2023-03-19T23:31:59.413Z,10.60
2023-03-19T23:34:28.504Z,9.73
2023-03-19T23:36:56.791Z,9.05
2023-03-19T23:39:24.038Z,9.65
2023-03-19T23:41:56.244Z,10.27
2023-03-19T23:44:23.462Z,9.40
2023-03-19T23:46:51.468Z,9.15
2023-03-19T23:49:28.924Z,10.77
2023-03-19T23:51:56.696Z,11.77
2023-03-19T23:54:32.693Z,12.80
2023-03-19T23:57:03.059Z,15.25
2023-03-19T23:59:34.708Z,15.73
